Time;durP1;ratioP1;P1;durP2;ratioP2;P2;SDS_P1;SDS_P2;PMS_P1;PMS_P2;Temp;Humidity;BMP_temperature;BMP_pressure;BME280_temperature;BME280_humidity;BME280_pressure;Samples;Min_cycle;Max_cycle;Signal;HPM_P1;HPM_P2
2022/07/15 00:00:55;;;;;;;7.30;4.60;;;;;;;23.28;50.83;99421.88;5070926;28;20187;-58
2022/07/15 00:03:22;;;;;;;7.30;4.57;;;;;;;23.23;51.38;99414.19;5070886;28;20654;-58
2022/07/15 00:05:49;;;;;;;7.90;4.43;;;;;;;23.17;51.35;99419.66;5070876;28;20203;-58
2022/07/15 00:08:17;;;;;;;6.10;4.30;;;;;;;23.17;51.49;99416.16;5070634;28;20701;-58
2022/07/15 00:10:44;;;;;;;6.07;4.90;;;;;;;23.08;51.89;99419.13;5070683;28;20184;-59
2022/07/15 00:13:11;;;;;;;5.03;4.47;;;;;;;23.04;52.04;99420.16;5070764;28;20650;-58
2022/07/15 00:15:37;;;;;;;6.22;4.78;;;;;;;22.95;52.14;99410.84;5069994;28;20438;-58
2022/07/15 00:18:05;;;;;;;4.17;3.63;;;;;;;22.88;51.78;99406.75;5070534;28;20195;-58
2022/07/15 00:20:33;;;;;;;4.60;4.20;;;;;;;22.80;52.21;99406.97;5070512;28;20204;-58
2022/07/15 00:23:01;;;;;;;5.60;3.93;;;;;;;22.79;52.84;99400.06;5070777;28;20200;-57
2022/07/15 00:25:29;;;;;;;5.17;4.30;;;;;;;22.81;52.96;99408.72;5070470;28;20219;-57
2022/07/15 00:27:59;;;;;;;4.50;4.00;;;;;;;22.76;53.15;99407.16;5070423;28;20227;-57
2022/07/15 00:30:31;;;;;;;7.80;4.47;;;;;;;22.72;53.20;99416.00;5070195;28;20227;-57
2022/07/15 00:32:59;;;;;;;8.27;4.07;;;;;;;22.67;52.73;99402.22;5070221;28;20227;-57
2022/07/15 00:35:26;;;;;;;7.73;4.73;;;;;;;22.61;53.40;99403.25;5070175;28;20282;-57
2022/07/15 00:37:53;;;;;;;5.27;4.60;;;;;;;22.54;53.56;99417.47;5070500;28;20187;-58
2022/07/15 00:40:20;;;;;;;7.37;5.10;;;;;;;22.51;53.98;99404.47;5070246;28;20666;-58
2022/07/15 00:42:48;;;;;;;7.20;5.27;;;;;;;22.48;53.84;99414.19;5070317;28;20195;-58
2022/07/15 00:45:17;;;;;;;6.57;4.57;;;;;;;22.48;54.04;99409.81;5069951;28;20195;-58
2022/07/15 00:47:45;;;;;;;5.43;4.30;;;;;;;22.53;54.00;99405.28;5069663;28;20457;-58
2022/07/15 00:50:12;;;;;;;7.23;4.67;;;;;;;22.56;53.64;99402.56;5070109;28;20206;-58
2022/07/15 00:52:40;;;;;;;8.20;4.23;;;;;;;22.52;53.74;99405.34;5070103;28;20685;-59
2022/07/15 00:55:10;;;;;;;6.67;4.50;;;;;;;22.49;54.28;99408.06;5070145;28;20673;-58
2022/07/15 00:57:39;;;;;;;8.10;4.10;;;;;;;22.37;54.76;99397.97;5069871;28;20223;-57
2022/07/15 01:00:10;;;;;;;4.37;3.97;;;;;;;22.30;54.77;99392.09;5070022;28;20278;-57
2022/07/15 01:02:37;;;;;;;5.10;4.10;;;;;;;22.33;55.01;99392.84;5069996;28;20578;-58
2022/07/15 01:05:06;;;;;;;7.18;4.47;;;;;;;22.40;55.45;99390.88;5069059;28;20436;-58
2022/07/15 01:07:33;;;;;;;4.73;4.33;;;;;;;22.43;55.52;99401.25;5069989;28;20219;-58
2022/07/15 01:10:00;;;;;;;4.40;4.00;;;;;;;22.43;55.69;99398.66;5069881;28;20647;-57
2022/07/15 01:12:27;;;;;;;8.73;4.77;;;;;;;22.34;55.66;99394.56;5069848;28;20662;-58
2022/07/15 01:14:54;;;;;;;5.67;4.13;;;;;;;22.37;56.03;99390.97;5070262;28;20191;-58
2022/07/15 01:17:22;;;;;;;5.23;4.73;;;;;;;22.33;56.12;99390.22;5070117;28;20186;-59
2022/07/15 01:19:50;;;;;;;5.23;4.10;;;;;;;22.36;56.22;99389.25;5069758;28;20195;-58
2022/07/15 01:22:18;;;;;;;9.43;4.27;;;;;;;22.30;56.43;99381.63;5069272;28;20195;-58
2022/07/15 01:24:45;;;;;;;6.30;4.30;;;;;;;22.31;56.54;99385.94;5069675;28;20196;-58
2022/07/15 01:27:11;;;;;;;5.57;4.10;;;;;;;22.27;56.71;99379.13;5069622;28;20582;-57
2022/07/15 01:29:38;;;;;;;5.33;4.27;;;;;;;22.22;56.90;99379.25;5069635;28;20586;-57
2022/07/15 01:32:06;;;;;;;4.57;4.03;;;;;;;22.22;56.89;99373.19;5069660;28;20191;-57
2022/07/15 01:34:33;;;;;;;4.30;3.90;;;;;;;22.23;56.19;99370.50;5069631;28;20191;-57
2022/07/15 01:36:59;;;;;;;5.07;4.20;;;;;;;22.25;56.43;99370.44;5068844;28;20429;-58
2022/07/15 01:39:28;;;;;;;5.20;4.70;;;;;;;22.25;55.81;99371.28;5069746;28;20191;-58
2022/07/15 01:41:55;;;;;;;5.47;4.37;;;;;;;22.26;56.26;99369.53;5069493;28;20276;-57
2022/07/15 01:44:22;;;;;;;7.67;4.23;;;;;;;22.25;56.40;99375.66;5069530;28;20199;-58
2022/07/15 01:46:48;;;;;;;6.33;4.17;;;;;;;22.23;56.36;99367.88;5069512;28;20202;-59
2022/07/15 01:49:26;;;;;;;5.90;4.57;;;;;;;22.18;56.32;99372.41;5069449;28;20223;-57
2022/07/15 01:51:54;;;;;;;5.07;4.50;;;;;;;22.16;56.76;99370.75;5069301;28;20412;-58
2022/07/15 01:54:22;;;;;;;5.50;4.47;;;;;;;22.15;57.07;99382.13;5069476;28;20249;-57
2022/07/15 01:56:51;;;;;;;4.90;4.50;;;;;;;22.07;57.45;99385.00;5070499;28;20780;-58
2022/07/15 01:59:18;;;;;;;6.87;5.17;;;;;;;22.00;58.32;99375.59;5073037;28;20692;-57
2022/07/15 02:01:45;;;;;;;8.23;4.93;;;;;;;22.01;58.99;99392.16;5073075;28;20199;-58
2022/07/15 02:04:13;;;;;;;5.87;4.83;;;;;;;21.94;59.43;99390.66;5073341;28;20196;-57
2022/07/15 02:06:40;;;;;;;8.23;5.17;;;;;;;21.88;60.16;99396.09;5072992;28;20735;-58
2022/07/15 02:09:07;;;;;;;6.17;5.30;;;;;;;21.77;61.23;99397.25;5073038;28;20219;-57
2022/07/15 02:11:34;;;;;;;7.47;4.93;;;;;;;21.70;62.05;99397.47;5073183;28;20673;-59
2022/07/15 02:14:03;;;;;;;7.30;5.30;;;;;;;21.61;61.80;99398.63;5073046;28;20187;-57
2022/07/15 02:16:30;;;;;;;8.23;5.00;;;;;;;21.52;62.25;99392.78;5073011;28;20196;-57
2022/07/15 02:18:58;;;;;;;6.83;5.17;;;;;;;21.45;62.71;99394.72;5072889;28;20187;-57
2022/07/15 02:21:26;;;;;;;5.37;4.83;;;;;;;21.29;62.75;99390.84;5072736;28;20714;-58
2022/07/15 02:23:53;;;;;;;5.73;5.23;;;;;;;21.25;62.70;99398.81;5072757;28;20199;-57
2022/07/15 02:26:20;;;;;;;6.73;4.63;;;;;;;21.27;61.61;99400.47;5071367;28;20440;-57
2022/07/15 02:28:47;;;;;;;5.00;4.50;;;;;;;21.33;61.39;99397.69;5072579;28;20219;-57
2022/07/15 02:31:15;;;;;;;6.43;4.40;;;;;;;21.30;61.57;99397.78;5072661;28;20194;-57
2022/07/15 02:33:42;;;;;;;5.23;4.77;;;;;;;21.27;61.55;99397.00;5072598;28;20188;-57
2022/07/15 02:36:09;;;;;;;5.73;4.73;;;;;;;21.25;61.53;99396.22;5072335;28;20191;-57
2022/07/15 02:38:36;;;;;;;7.20;5.13;;;;;;;21.21;61.10;99403.25;5072470;28;20187;-57
2022/07/15 02:41:03;;;;;;;7.20;4.63;;;;;;;21.13;60.80;99389.56;5072264;28;20461;-58
2022/07/15 02:43:30;;;;;;;7.63;4.50;;;;;;;21.15;60.81;99414.75;5072251;28;20245;-57
2022/07/15 02:45:57;;;;;;;5.33;4.47;;;;;;;21.14;60.84;99413.06;5072403;28;20195;-57
2022/07/15 02:48:25;;;;;;;4.47;4.07;;;;;;;21.06;60.40;99408.91;5072192;28;20215;-57
2022/07/15 02:50:52;;;;;;;4.33;3.93;;;;;;;21.09;60.43;99414.94;5072288;28;20191;-58
2022/07/15 02:53:20;;;;;;;4.40;4.00;;;;;;;21.06;60.65;99420.22;5072466;28;20204;-57
2022/07/15 02:55:48;;;;;;;5.30;4.50;;;;;;;21.04;60.90;99408.09;5072349;28;20300;-57
2022/07/15 02:58:15;;;;;;;4.80;4.33;;;;;;;21.09;61.13;99403.63;5072169;28;20227;-58
2022/07/15 03:00:42;;;;;;;5.47;4.93;;;;;;;21.09;61.24;99411.47;5072334;28;20662;-58
2022/07/15 03:03:08;;;;;;;8.80;5.13;;;;;;;21.09;61.26;99408.84;5072126;28;20202;-58
2022/07/15 03:05:37;;;;;;;7.40;4.97;;;;;;;21.09;61.36;99401.88;5072182;28;20192;-56
2022/07/15 03:08:03;;;;;;;6.43;4.93;;;;;;;21.10;61.51;99403.56;5072070;28;20209;-57
2022/07/15 03:10:30;;;;;;;5.30;4.90;;;;;;;21.14;61.59;99404.34;5072123;28;20191;-57
2022/07/15 03:12:57;;;;;;;4.57;4.17;;;;;;;21.21;61.16;99402.41;5072040;28;20195;-57
2022/07/15 03:15:24;;;;;;;7.30;4.50;;;;;;;21.28;60.95;99404.81;5071976;28;20191;-57
2022/07/15 03:17:50;;;;;;;6.10;4.50;;;;;;;21.32;60.69;99392.50;5071708;28;20200;-57
2022/07/15 03:20:17;;;;;;;7.60;4.60;;;;;;;21.44;60.64;99400.00;5071894;28;20211;-57
2022/07/15 03:22:45;;;;;;;6.03;4.30;;;;;;;21.53;59.55;99391.91;5071889;28;20199;-58
2022/07/15 03:25:12;;;;;;;4.93;4.53;;;;;;;21.60;59.15;99402.13;5071751;28;20655;-58
2022/07/15 03:27:39;;;;;;;8.47;4.67;;;;;;;21.70;58.23;99389.59;5071848;28;20245;-58
2022/07/15 03:30:07;;;;;;;4.97;4.20;;;;;;;21.74;57.81;99386.88;5071046;28;20449;-57
2022/07/15 03:32:34;;;;;;;7.37;4.97;;;;;;;21.89;57.00;99396.06;5071652;28;20653;-58
2022/07/15 03:35:01;;;;;;;4.93;4.30;;;;;;;21.96;56.51;99399.31;5071796;28;20200;-57
2022/07/15 03:37:28;;;;;;;4.60;4.10;;;;;;;22.00;55.56;99393.91;5071918;28;20195;-58
2022/07/15 03:39:56;;;;;;;5.27;4.60;;;;;;;22.11;55.69;99399.66;5071466;28;20278;-57
2022/07/15 03:42:23;;;;;;;6.57;4.47;;;;;;;22.14;54.62;99396.97;5071460;28;20203;-58
2022/07/15 03:44:50;;;;;;;4.87;3.87;;;;;;;22.21;54.67;99395.00;5071419;28;20195;-58
2022/07/15 03:47:16;;;;;;;5.03;4.30;;;;;;;22.21;54.84;99392.41;5071193;28;20207;-58
2022/07/15 03:49:43;;;;;;;7.03;4.67;;;;;;;21.96;55.52;99357.44;5071364;28;20249;-58
2022/07/15 03:52:10;;;;;;;4.57;4.13;;;;;;;22.13;55.44;99397.03;5071249;28;20191;-58
2022/07/15 03:54:37;;;;;;;8.60;4.90;;;;;;;22.04;55.52;99398.16;5071429;28;20195;-57
2022/07/15 03:57:05;;;;;;;5.90;4.13;;;;;;;21.91;55.87;99396.84;5070847;28;20231;-58
2022/07/15 03:59:32;;;;;;;7.80;4.53;;;;;;;21.72;55.96;99388.69;5070908;28;20257;-57
2022/07/15 04:01:59;;;;;;;5.53;4.27;;;;;;;21.67;56.44;99402.81;5071174;28;20223;-58
2022/07/15 04:04:26;;;;;;;5.88;4.57;;;;;;;21.66;56.50;99399.31;5069930;28;20928;-58
2022/07/15 04:06:53;;;;;;;5.40;4.43;;;;;;;21.72;56.57;99400.91;5071073;28;20207;-57
2022/07/15 04:09:20;;;;;;;6.70;4.63;;;;;;;21.72;55.92;99401.75;5070706;28;20223;-58
2022/07/15 04:11:46;;;;;;;4.93;4.50;;;;;;;21.64;56.02;99395.91;5070874;28;21005;-57
2022/07/15 04:14:17;;;;;;;6.50;4.23;;;;;;;21.51;55.83;99402.38;5070856;28;20199;-57
2022/07/15 04:16:44;;;;;;;6.83;5.07;;;;;;;21.49;56.50;99401.56;5070548;28;20757;-57
2022/07/15 04:19:11;;;;;;;5.45;4.50;;;;;;;21.56;56.38;99399.66;5069417;28;20434;-58
2022/07/15 04:21:38;;;;;;;6.23;4.50;;;;;;;21.61;56.52;99398.63;5070513;28;20187;-57
2022/07/15 04:24:06;;;;;;;7.03;4.40;;;;;;;21.68;55.99;99399.28;5070260;28;20192;-58
2022/07/15 04:26:32;;;;;;;4.97;4.53;;;;;;;21.62;56.00;99387.22;5070393;28;20206;-57
2022/07/15 04:28:59;;;;;;;6.07;4.40;;;;;;;21.73;55.90;99397.38;5070200;28;20276;-57
2022/07/15 04:31:27;;;;;;;4.60;4.20;;;;;;;21.83;55.35;99392.72;5070394;28;20187;-57
2022/07/15 04:33:54;;;;;;;4.90;4.50;;;;;;;21.91;55.04;99398.59;5070041;28;20202;-58
2022/07/15 04:36:21;;;;;;;6.43;4.40;;;;;;;21.95;54.63;99387.97;5070188;28;20195;-57
2022/07/15 04:38:48;;;;;;;5.17;4.67;;;;;;;21.99;54.76;99394.00;5070150;28;20187;-58
2022/07/15 04:41:15;;;;;;;8.57;5.07;;;;;;;22.04;54.75;99392.06;5069950;28;20195;-57
2022/07/15 04:43:42;;;;;;;5.93;4.87;;;;;;;22.03;54.54;99382.53;5070031;28;20198;-58
2022/07/15 04:46:08;;;;;;;13.77;5.60;;;;;;;22.11;54.79;99391.81;5070048;28;20194;-58
2022/07/15 04:51:21;;;;;;;8.57;4.93;;;;;;;22.24;53.21;99393.16;5070073;28;20688;-58
2022/07/15 04:53:48;;;;;;;6.03;4.68;;;;;;;22.29;53.30;99393.00;5068736;28;20437;-58
2022/07/15 04:56:16;;;;;;;6.43;4.40;;;;;;;22.40;51.92;99395.25;5069675;28;20719;-58
2022/07/15 04:58:43;;;;;;;5.10;3.90;;;;;;;22.43;51.52;99398.66;5070103;28;20241;-58
2022/07/15 05:01:10;;;;;;;4.37;3.97;;;;;;;22.48;51.36;99399.34;5069927;28;20198;-58
2022/07/15 05:03:39;;;;;;;4.57;4.17;;;;;;;22.53;51.26;99400.03;5069784;28;20250;-58
2022/07/15 05:06:06;;;;;;;6.27;4.17;;;;;;;22.59;50.90;99393.75;5069717;28;20201;-58
2022/07/15 05:08:33;;;;;;;5.18;4.10;;;;;;;22.61;50.96;99400.63;5069555;28;20445;-58
2022/07/15 05:11:00;;;;;;;7.20;4.43;;;;;;;22.65;51.01;99399.66;5069872;28;20218;-58
2022/07/15 05:13:26;;;;;;;7.00;4.40;;;;;;;22.66;50.91;99400.53;5069766;28;20206;-58
2022/07/15 05:15:54;;;;;;;5.70;3.97;;;;;;;22.64;50.73;99399.69;5069606;28;20674;-58
2022/07/15 05:18:20;;;;;;;4.10;3.80;;;;;;;22.74;50.69;99404.56;5069479;28;20607;-58
2022/07/15 05:20:48;;;;;;;7.83;4.30;;;;;;;22.91;50.25;99409.22;5069693;28;20555;-58
2022/07/15 05:23:18;;;;;;;4.20;3.90;;;;;;;22.99;49.75;99411.59;5069285;28;20191;-59
2022/07/15 05:25:45;;;;;;;7.47;4.30;;;;;;;23.03;49.96;99403.56;5069676;28;20195;-58
2022/07/15 05:28:12;;;;;;;4.43;4.03;;;;;;;23.15;49.73;99407.53;5069458;28;20195;-59
2022/07/15 05:30:39;;;;;;;4.97;4.47;;;;;;;23.19;50.13;99404.72;5070507;28;20211;-58
2022/07/15 05:33:06;;;;;;;6.50;3.93;;;;;;;23.27;49.96;99410.53;5073585;28;20574;-59
2022/07/15 05:35:33;;;;;;;4.70;4.10;;;;;;;23.38;49.77;99412.78;5073359;28;20195;-59
2022/07/15 05:38:01;;;;;;;6.77;4.23;;;;;;;23.49;50.22;99406.25;5073405;28;20195;-58
2022/07/15 05:40:29;;;;;;;7.93;4.00;;;;;;;23.62;48.76;99409.28;5073238;28;20667;-58
2022/07/15 05:42:56;;;;;;;4.90;4.00;;;;;;;23.81;48.93;99418.16;5072151;28;20430;-56
2022/07/15 05:45:22;;;;;;;6.10;4.50;;;;;;;23.90;48.17;99417.78;5073196;28;20202;-57
2022/07/15 05:47:49;;;;;;;8.80;4.33;;;;;;;24.00;47.76;99421.78;5073098;28;20192;-58
2022/07/15 05:50:16;;;;;;;4.63;4.17;;;;;;;24.10;47.55;99416.16;5073127;28;20364;-58
2022/07/15 05:52:44;;;;;;;4.33;3.93;;;;;;;24.19;47.43;99421.06;5073175;28;20188;-57
2022/07/15 05:55:12;;;;;;;7.53;4.17;;;;;;;24.31;47.50;99417.97;5072982;28;20620;-57
2022/07/15 05:57:39;;;;;;;6.97;4.10;;;;;;;24.37;46.91;99420.31;5072709;28;20223;-57
2022/07/15 06:00:08;;;;;;;5.43;3.73;;;;;;;24.46;46.18;99423.44;5072802;28;20253;-58
2022/07/15 06:02:35;;;;;;;6.27;4.00;;;;;;;24.49;46.95;99425.94;5072607;28;20225;-57
2022/07/15 06:05:02;;;;;;;5.20;4.00;;;;;;;24.57;46.90;99422.97;5072194;28;20195;-58
2022/07/15 06:07:29;;;;;;;4.97;4.07;;;;;;;24.63;46.53;99417.47;5072730;28;20297;-57
2022/07/15 06:09:55;;;;;;;4.80;4.40;;;;;;;24.67;46.65;99413.78;5072730;28;20211;-58
2022/07/15 06:12:24;;;;;;;4.73;4.20;;;;;;;24.76;46.27;99420.41;5072516;28;20192;-60
2022/07/15 06:14:51;;;;;;;6.17;4.77;;;;;;;24.79;45.95;99418.56;5072275;28;20191;-58
2022/07/15 06:17:17;;;;;;;11.90;4.43;;;;;;;24.91;45.79;99414.56;5072369;28;20199;-58
2022/07/15 06:19:44;;;;;;;5.53;4.73;;;;;;;25.02;46.54;99409.69;5072260;28;20546;-66
2022/07/15 06:22:11;;;;;;;6.53;5.10;;;;;;;24.99;46.21;99392.28;5072192;28;20192;-66
2022/07/15 06:24:38;;;;;;;5.83;4.63;;;;;;;25.17;45.85;99404.59;5072173;28;20192;-67
2022/07/15 06:27:05;;;;;;;6.33;4.73;;;;;;;25.28;46.12;99411.16;5072409;28;20743;-66
2022/07/15 06:29:33;;;;;;;6.33;4.80;;;;;;;25.35;45.90;99397.66;5072271;28;20219;-66
2022/07/15 06:32:00;;;;;;;5.83;5.00;;;;;;;25.37;45.44;99405.47;5072066;28;20187;-67
2022/07/15 06:34:27;;;;;;;6.43;4.40;;;;;;;25.49;45.20;99404.97;5072091;28;20192;-66
2022/07/15 06:36:53;;;;;;;4.47;4.17;;;;;;;25.44;44.77;99401.63;5071920;28;20191;-67
2022/07/15 06:39:21;;;;;;;8.57;5.70;;;;;;;25.47;44.86;99393.63;5071948;28;20191;-66
2022/07/15 06:41:48;;;;;;;5.30;4.50;;;;;;;25.50;45.05;99394.34;5071531;28;20188;-66
2022/07/15 06:44:14;;;;;;;6.53;4.70;;;;;;;25.65;44.59;99391.03;5071840;28;20654;-66
2022/07/15 06:46:43;;;;;;;7.43;5.03;;;;;;;25.76;45.13;99395.78;5071832;28;20204;-66
2022/07/15 06:49:09;;;;;;;5.93;4.60;;;;;;;25.88;43.50;99387.28;5071170;28;20438;-66
2022/07/15 06:51:36;;;;;;;5.97;5.13;;;;;;;26.03;43.87;99393.63;5071998;28;20658;-66
2022/07/15 06:54:03;;;;;;;13.87;5.57;;;;;;;26.13;43.49;99389.59;5071897;28;20214;-67
2022/07/15 06:56:30;;;;;;;5.83;4.73;;;;;;;26.12;43.18;99378.19;5071382;28;20231;-65
2022/07/15 06:58:57;;;;;;;5.13;4.40;;;;;;;26.25;43.66;99381.16;5071670;28;20612;-66
2022/07/15 07:01:24;;;;;;;7.90;4.23;;;;;;;26.31;43.23;99380.84;5071726;28;20207;-66
2022/07/15 07:03:52;;;;;;;4.97;4.27;;;;;;;26.41;42.58;99374.19;5071446;28;20226;-66
2022/07/15 07:06:19;;;;;;;5.10;4.60;;;;;;;26.52;42.53;99378.91;5071454;28;20201;-67
2022/07/15 07:08:47;;;;;;;5.50;3.67;;;;;;;26.61;42.97;99375.81;5071646;28;20195;-68
2022/07/15 07:11:14;;;;;;;9.30;4.37;;;;;;;26.72;42.26;99374.34;5071475;28;20307;-68
2022/07/15 07:13:41;;;;;;;7.23;4.17;;;;;;;26.72;41.91;99379.63;5071577;28;20191;-67
2022/07/15 07:16:08;;;;;;;5.90;4.47;;;;;;;26.81;42.29;99380.97;5071716;28;20203;-67
2022/07/15 07:18:35;;;;;;;9.23;5.73;;;;;;;26.81;42.88;99344.06;5071480;28;20191;-67
2022/07/15 07:21:04;;;;;;;6.68;4.50;;;;;;;27.03;42.05;99376.25;5071254;28;20441;-65
2022/07/15 07:23:31;;;;;;;4.87;3.73;;;;;;;27.11;40.64;99371.44;5071168;28;20192;-67
2022/07/15 07:25:58;;;;;;;6.20;4.45;;;;;;;27.17;40.92;99373.72;5071156;28;20211;-66
2022/07/15 07:28:25;;;;;;;4.20;3.80;;;;;;;27.20;40.98;99373.56;5071028;28;20192;-66
2022/07/15 07:30:54;;;;;;;5.10;4.00;;;;;;;27.27;40.76;99371.47;5071043;28;20212;-67
2022/07/15 07:33:21;;;;;;;7.10;3.80;;;;;;;27.27;40.03;99374.09;5071178;28;20188;-67
2022/07/15 07:35:48;;;;;;;5.82;4.00;;;;;;;27.25;40.65;99376.81;5071349;28;20249;-66
2022/07/15 07:38:16;;;;;;;7.28;4.18;;;;;;;27.34;40.65;99378.97;5070322;28;20430;-66
2022/07/15 07:40:43;;;;;;;4.30;4.00;;;;;;;27.31;39.18;99365.06;5071009;28;20203;-66
2022/07/15 07:43:10;;;;;;;8.03;3.90;;;;;;;27.40;39.78;99373.41;5071164;28;20206;-66
2022/07/15 07:45:37;;;;;;;9.02;4.10;;;;;;;27.49;39.60;99375.53;5071037;28;20673;-67
2022/07/15 07:48:05;;;;;;;4.82;4.25;;;;;;;27.58;39.46;99379.44;5070970;28;20207;-66
2022/07/15 07:50:32;;;;;;;5.57;3.42;;;;;;;27.61;38.71;99373.16;5070639;28;20575;-67
2022/07/15 07:52:58;;;;;;;5.20;3.80;;;;;;;27.59;38.38;99375.03;5070981;28;20210;-66
2022/07/15 07:55:27;;;;;;;4.60;3.33;;;;;;;27.56;37.68;99370.75;5070942;28;20202;-67
2022/07/15 07:57:55;;;;;;;14.02;4.07;;;;;;;27.49;38.30;99366.78;5070179;28;20694;-67
2022/07/15 08:00:24;;;;;;;4.25;3.30;;;;;;;27.49;38.35;99370.25;5070221;28;20248;-67
2022/07/15 08:02:51;;;;;;;3.95;3.45;;;;;;;27.49;39.05;99357.06;5070256;28;20188;-67
2022/07/15 08:05:18;;;;;;;5.00;4.43;;;;;;;27.60;39.02;99360.91;5070089;28;20195;-66
2022/07/15 08:07:45;;;;;;;3.78;3.47;;;;;;;27.66;38.95;99360.56;5070295;28;20195;-66
2022/07/15 08:10:13;;;;;;;5.33;3.83;;;;;;;27.76;38.83;99353.81;5069663;28;20497;-66
2022/07/15 08:12:42;;;;;;;6.05;3.80;;;;;;;27.88;38.13;99356.63;5070116;28;20621;-66
2022/07/15 08:15:11;;;;;;;6.47;3.65;;;;;;;27.92;37.54;99352.00;5070193;28;20188;-66
2022/07/15 08:17:38;;;;;;;4.50;3.63;;;;;;;27.94;37.10;99353.63;5070068;28;20188;-66
2022/07/15 08:20:07;;;;;;;6.03;4.43;;;;;;;28.05;37.63;99350.41;5070011;28;20532;-66
2022/07/15 08:22:34;;;;;;;4.05;3.60;;;;;;;28.17;36.60;99351.50;5070105;28;20188;-67
2022/07/15 08:25:01;;;;;;;4.38;3.88;;;;;;;28.15;36.33;99359.53;5069736;28;20737;-66
2022/07/15 08:27:29;;;;;;;4.13;3.47;;;;;;;28.12;36.19;99354.41;5069221;28;20446;-66
2022/07/15 08:29:57;;;;;;;3.22;2.92;;;;;;;28.18;35.66;99355.84;5069840;28;20743;-67
2022/07/15 08:32:24;;;;;;;8.68;3.80;;;;;;;28.37;36.21;99352.06;5069873;28;20628;-66
2022/07/15 08:34:51;;;;;;;5.85;3.50;;;;;;;28.43;35.55;99351.66;5069664;28;20260;-66
2022/07/15 08:37:18;;;;;;;4.75;3.65;;;;;;;28.51;34.65;99351.25;5069970;28;20192;-67
2022/07/15 08:39:45;;;;;;;3.53;3.22;;;;;;;28.61;35.36;99350.59;5069725;28;20685;-66
2022/07/15 08:42:13;;;;;;;5.75;3.42;;;;;;;28.74;35.42;99341.94;5069992;28;20556;-68
2022/07/15 08:44:40;;;;;;;8.35;4.03;;;;;;;28.91;35.56;99344.44;5069781;28;20192;-67
2022/07/15 08:47:08;;;;;;;4.68;3.60;;;;;;;29.04;36.42;99340.09;5069483;28;20199;-67
2022/07/15 08:49:39;;;;;;;5.93;3.85;;;;;;;29.10;35.40;99345.00;5069378;28;20214;-67
2022/07/15 08:52:07;;;;;;;5.57;3.83;;;;;;;29.00;34.52;99331.50;5069814;28;20191;-66
2022/07/15 08:54:34;;;;;;;3.53;3.30;;;;;;;29.01;34.46;99334.97;5069851;28;20321;-67
2022/07/15 08:57:00;;;;;;;5.45;3.85;;;;;;;29.05;34.09;99334.72;5069529;28;20799;-67
2022/07/15 08:59:27;;;;;;;5.70;3.53;;;;;;;29.04;33.91;99330.34;5069528;28;20957;-66
2022/07/15 09:01:54;;;;;;;4.68;3.35;;;;;;;29.13;33.93;99332.44;5069711;28;20653;-67
2022/07/15 09:04:23;;;;;;;4.22;3.20;;;;;;;29.21;33.38;99337.25;5069529;28;20196;-66
2022/07/15 09:06:51;;;;;;;3.58;3.28;;;;;;;29.26;32.88;99329.91;5069376;28;20195;-67
2022/07/15 09:09:29;;;;;;;5.07;3.22;;;;;;;29.41;33.54;99325.44;5069558;28;20203;-67
2022/07/15 09:12:01;;;;;;;4.28;3.10;;;;;;;29.57;32.75;99324.38;5069495;28;20669;-67
2022/07/15 09:14:29;;;;;;;3.25;2.95;;;;;;;29.65;32.22;99324.72;5069554;28;20222;-67
2022/07/15 09:17:21;;;;;;;3.93;3.00;;;;;;;29.83;32.37;99314.78;5068740;28;20940;-66
2022/07/15 09:20:06;;;;;;;3.70;2.90;;;;;;;29.92;30.76;99324.75;5069495;28;20256;-67
2022/07/15 09:22:34;;;;;;;3.33;2.60;;;;;;;29.99;30.87;99317.28;5069462;28;20582;-66
2022/07/15 09:25:07;;;;;;;3.97;2.70;;;;;;;30.04;31.11;99313.38;5069746;28;20242;-66
2022/07/15 09:27:37;;;;;;;5.55;3.15;;;;;;;30.09;30.07;99305.09;5069164;28;20327;-66
2022/07/15 09:36:04;;;;;;;3.50;2.22;;;;;;;30.23;29.84;99305.88;5069329;28;20732;-67
2022/07/15 09:38:33;;;;;;;3.95;2.70;;;;;;;30.27;29.41;99303.91;5069347;28;20195;-67
2022/07/15 09:41:01;;;;;;;6.38;2.70;;;;;;;30.35;29.12;99307.69;5069088;28;20199;-67
2022/07/15 09:43:28;;;;;;;3.15;2.75;;;;;;;30.49;29.72;99304.13;5069077;28;20199;-67
2022/07/15 09:45:59;;;;;;;6.05;3.30;;;;;;;30.30;29.50;99296.56;5068998;28;20195;-67
2022/07/15 09:48:28;;;;;;;8.52;2.85;;;;;;;30.33;28.52;99303.44;5069465;28;20251;-67
2022/07/15 09:51:00;;;;;;;3.03;2.42;;;;;;;30.29;28.92;99286.94;5069115;28;20277;-67
2022/07/15 09:53:28;;;;;;;3.90;2.55;;;;;;;30.37;28.40;99292.59;5068939;28;20686;-67
2022/07/15 09:55:55;;;;;;;3.08;2.40;;;;;;;30.37;28.58;99286.44;5068969;28;20192;-67
2022/07/15 09:58:22;;;;;;;2.70;2.50;;;;;;;30.51;28.95;99288.13;5068381;28;20242;-66
2022/07/15 10:00:51;;;;;;;3.13;2.78;;;;;;;30.58;28.53;99292.06;5068824;28;20192;-66
2022/07/15 10:03:18;;;;;;;4.90;2.58;;;;;;;30.62;28.67;99289.09;5068825;28;20200;-66
2022/07/15 10:05:47;;;;;;;3.77;2.63;;;;;;;30.69;27.97;99284.22;5068566;28;20429;-67
2022/07/15 10:08:17;;;;;;;3.88;2.70;;;;;;;30.88;28.08;99279.31;5068433;28;20207;-67
2022/07/15 10:10:44;;;;;;;3.80;2.75;;;;;;;31.09;28.18;99283.16;5068515;28;20675;-67
2022/07/15 10:13:35;;;;;;;3.13;2.55;;;;;;;31.22;27.89;99286.63;5068523;28;20191;-68
2022/07/15 10:16:18;;;;;;;5.28;3.78;;;;;;;31.34;27.52;99282.25;5065906;28;20202;-67
2022/07/15 10:18:58;;;;;;;2.70;2.50;;;;;;;31.41;26.75;99278.19;5071394;28;20218;-67
2022/07/15 10:21:33;;;;;;;2.95;2.70;;;;;;;31.44;27.75;99270.84;5072035;28;20226;-67
2022/07/15 10:24:36;;;;;;;5.63;2.60;;;;;;;31.52;27.04;99262.34;5072143;28;20198;-67
2022/07/15 10:27:18;;;;;;;3.58;2.83;;;;;;;31.62;26.82;99267.84;5072566;28;20208;-67
2022/07/15 10:29:47;;;;;;;3.80;3.50;;;;;;;31.70;27.67;99254.84;5072600;28;20196;-67
2022/07/15 10:32:14;;;;;;;6.50;3.70;;;;;;;31.87;26.72;99259.72;5071898;28;20223;-67
2022/07/15 10:34:42;;;;;;;10.38;3.03;;;;;;;31.76;27.12;99262.34;5072214;28;20222;-67
2022/07/15 10:37:11;;;;;;;5.88;2.72;;;;;;;31.76;27.28;99254.38;5071994;28;20196;-67
2022/07/15 10:40:07;;;;;;;4.50;2.45;;;;;;;31.74;27.09;99253.63;5071027;28;20445;-67
2022/07/15 10:43:01;;;;;;;3.90;2.58;;;;;;;31.58;26.85;99251.28;5071887;28;20555;-67
2022/07/15 10:45:28;;;;;;;5.97;2.75;;;;;;;31.38;26.99;99241.22;5072030;28;20582;-67
2022/07/15 10:48:30;;;;;;;2.75;2.55;;;;;;;31.42;26.97;99242.72;5072076;28;20198;-67
2022/07/15 10:50:57;;;;;;;8.93;2.60;;;;;;;31.28;26.98;99243.72;5070961;28;20219;-67
2022/07/15 10:53:27;;;;;;;4.22;2.63;;;;;;;31.42;27.63;99234.75;5071708;28;20192;-66
2022/07/15 10:55:56;;;;;;;3.78;2.95;;;;;;;31.73;27.46;99233.38;5071504;28;20942;-67
2022/07/15 10:58:23;;;;;;;8.30;3.00;;;;;;;31.91;26.74;99237.28;5071457;28;20223;-57
2022/07/15 11:00:49;;;;;;;3.00;2.75;;;;;;;32.00;26.70;99234.78;5075297;28;20645;-58
2022/07/15 11:03:19;;;;;;;3.25;2.80;;;;;;;32.04;26.66;99220.31;5084663;28;20616;-58
2022/07/15 11:06:06;;;;;;;3.63;2.20;;;;;;;32.04;26.59;99219.47;5089176;28;20203;-58
2022/07/15 11:09:00;;;;;;;3.80;3.08;;;;;;;32.33;26.80;99219.91;5071838;28;20269;-58
2022/07/15 11:11:48;;;;;;;2.95;2.65;;;;;;;32.54;26.23;99218.28;5058717;28;20227;-58
2022/07/15 11:14:52;;;;;;;3.92;2.25;;;;;;;32.68;25.21;99218.88;5071617;28;20195;-58
2022/07/15 11:17:22;;;;;;;5.35;2.05;;;;;;;32.75;24.39;99213.91;5071224;28;20256;-57
2022/07/15 11:19:53;;;;;;;2.33;2.00;;;;;;;32.56;25.51;99173.75;5071949;28;20199;-57
2022/07/15 11:22:21;;;;;;;2.75;2.53;;;;;;;32.82;25.44;99206.28;5071240;28;20202;-59
2022/07/15 11:24:48;;;;;;;3.05;2.20;;;;;;;32.88;25.00;99206.63;5071072;28;20204;-58
2022/07/15 11:27:17;;;;;;;3.40;2.58;;;;;;;32.91;24.96;99210.91;5084357;28;20945;-57
2022/07/15 11:29:45;;;;;;;4.28;3.30;;;;;;;33.00;25.28;99204.81;5090932;28;20198;-58
2022/07/15 11:32:13;;;;;;;3.05;2.20;;;;;;;33.07;24.75;99212.22;5091441;28;20715;-58
2022/07/15 11:34:43;;;;;;;2.45;1.92;;;;;;;33.08;24.19;99207.75;5090970;28;20206;-58
2022/07/15 11:37:12;;;;;;;2.25;2.10;;;;;;;33.13;25.41;99194.88;5091323;28;20199;-58
2022/07/15 11:39:39;;;;;;;3.75;3.40;;;;;;;33.21;25.08;99195.97;5091299;28;20365;-58
2022/07/15 11:44:52;;;;;;;3.90;1.98;;;;;;;33.31;23.93;99204.06;5089488;28;20412;-57
2022/07/15 11:47:19;;;;;;;3.97;3.67;;;;;;;33.42;24.74;99197.84;5091243;28;20202;-57
2022/07/15 11:49:46;;;;;;;2.90;2.40;;;;;;;33.36;23.68;99193.88;5091294;28;20199;-57
2022/07/15 11:52:22;;;;;;;4.65;2.63;;;;;;;33.50;24.21;99195.41;5090848;28;20219;-57